createdAt,value
2022-10-22T00:00:25.883Z,63.31
2022-10-22T00:01:30.150Z,63.32
2022-10-22T00:02:34.621Z,63.29
2022-10-22T00:03:39.097Z,63.35
2022-10-22T00:05:47.750Z,63.42
2022-10-22T00:06:52.013Z,63.38
2022-10-22T00:07:56.493Z,63.43
2022-10-22T00:09:01.056Z,63.46
2022-10-22T00:10:05.350Z,63.26
2022-10-22T00:11:09.633Z,63.4
2022-10-22T00:12:13.945Z,63.45
2022-10-22T00:13:18.231Z,63.39
2022-10-22T00:14:22.527Z,63.37
2022-10-22T00:15:26.784Z,63.36
2022-10-22T00:16:31.043Z,63.51
2022-10-22T00:17:35.341Z,63.51
2022-10-22T00:18:39.598Z,63.55
2022-10-22T00:19:43.841Z,63.49
2022-10-22T00:20:48.113Z,63.53
2022-10-22T00:21:52.378Z,63.58
2022-10-22T00:22:56.719Z,63.59
2022-10-22T00:24:00.999Z,63.76
2022-10-22T00:25:05.243Z,63.6
2022-10-22T00:26:09.621Z,63.67
2022-10-22T00:27:13.881Z,63.58
2022-10-22T00:28:18.158Z,63.67
2022-10-22T00:29:22.418Z,63.52
2022-10-22T00:30:26.707Z,63.69
2022-10-22T00:31:30.971Z,63.84
2022-10-22T00:32:35.227Z,63.99
2022-10-22T00:33:39.488Z,64.01
2022-10-22T00:34:43.769Z,63.76
2022-10-22T00:35:48.459Z,63.83
2022-10-22T00:36:52.719Z,63.75
2022-10-22T00:37:56.962Z,63.92
2022-10-22T00:39:01.214Z,63.94
2022-10-22T00:40:05.563Z,64.07
2022-10-22T00:41:09.821Z,63.85
2022-10-22T00:42:14.107Z,64.16
2022-10-22T00:43:18.372Z,64.01
2022-10-22T00:44:22.642Z,63.85
2022-10-22T00:45:26.993Z,63.91
2022-10-22T00:46:31.233Z,63.89
2022-10-22T00:47:35.488Z,64.11
2022-10-22T00:48:39.819Z,64.34
2022-10-22T00:49:44.061Z,63.95
2022-10-22T00:50:48.596Z,64.11
2022-10-22T00:51:52.850Z,64.06
2022-10-22T00:52:57.090Z,64.04
2022-10-22T00:54:01.343Z,64.08
2022-10-22T00:55:05.659Z,64.28
2022-10-22T00:56:10.445Z,64.04
2022-10-22T00:57:14.735Z,64.14
2022-10-22T00:58:18.972Z,64.19
2022-10-22T00:59:23.233Z,64.25
2022-10-22T01:00:27.490Z,64.2
2022-10-22T01:01:31.762Z,64.3
2022-10-22T01:02:36.020Z,64.16
2022-10-22T01:03:40.289Z,64.2
2022-10-22T01:04:44.568Z,64.4
2022-10-22T01:05:49.375Z,64.37
2022-10-22T01:06:53.654Z,64.2
2022-10-22T01:07:58.127Z,64.41
2022-10-22T01:09:02.673Z,64.3
2022-10-22T01:10:07.091Z,64.46
2022-10-22T01:11:11.364Z,64.4
2022-10-22T01:12:15.667Z,64.5
2022-10-22T01:13:19.949Z,64.65
2022-10-22T01:14:24.215Z,64.51
2022-10-22T01:15:28.466Z,64.51
2022-10-22T01:16:32.714Z,64.38
2022-10-22T01:17:36.984Z,64.5
2022-10-22T01:18:41.561Z,64.45
2022-10-22T01:19:45.800Z,64.83
2022-10-22T01:20:50.107Z,64.53
2022-10-22T01:21:54.359Z,64.59
2022-10-22T01:22:58.923Z,64.61
2022-10-22T01:24:03.191Z,64.86
2022-10-22T01:25:07.467Z,64.58
2022-10-22T01:26:11.929Z,64.81
2022-10-22T01:27:16.309Z,64.74
2022-10-22T01:28:20.583Z,65.06
2022-10-22T01:29:24.856Z,64.68
2022-10-22T01:30:29.177Z,65.07
2022-10-22T01:31:33.451Z,64.9
2022-10-22T01:32:37.706Z,64.85
2022-10-22T01:33:41.964Z,64.82
2022-10-22T01:34:46.222Z,64.8
2022-10-22T01:35:50.679Z,64.66
2022-10-22T01:36:54.933Z,64.89
2022-10-22T01:37:59.278Z,64.95
2022-10-22T01:39:03.550Z,65.11
2022-10-22T01:40:07.851Z,65.15
2022-10-22T01:41:12.134Z,64.93
2022-10-22T01:42:16.477Z,64.99
2022-10-22T01:43:20.736Z,65.06
2022-10-22T01:44:25.203Z,65.22
2022-10-22T01:45:29.567Z,65.1
2022-10-22T01:46:33.829Z,65.18
2022-10-22T01:47:38.634Z,65.07
2022-10-22T01:48:43.160Z,65.2
2022-10-22T01:49:47.486Z,65.04
2022-10-22T01:50:51.878Z,65.03
2022-10-22T01:51:56.199Z,65.28
2022-10-22T01:53:00.465Z,65.25
2022-10-22T01:54:04.698Z,65.16
2022-10-22T01:55:08.972Z,65.27
2022-10-22T01:56:13.227Z,64.95
2022-10-22T01:57:17.495Z,64.89
2022-10-22T01:58:21.730Z,64.96
2022-10-22T01:59:26.032Z,65.03
2022-10-22T02:00:30.593Z,65.08
2022-10-22T02:01:34.894Z,65.25
2022-10-22T02:02:39.551Z,65.26
2022-10-22T02:03:43.851Z,65.03
2022-10-22T02:04:48.614Z,65.06
2022-10-22T02:05:52.887Z,64.93
2022-10-22T02:06:57.188Z,65.13
2022-10-22T02:08:01.447Z,64.98
2022-10-22T02:09:06.043Z,65.33
2022-10-22T02:10:10.806Z,65.33
2022-10-22T02:11:15.236Z,65.29
2022-10-22T02:12:19.487Z,65.16
2022-10-22T02:13:23.805Z,65.08
2022-10-22T02:14:28.050Z,65.05
2022-10-22T02:15:32.372Z,65.16
2022-10-22T02:16:36.628Z,65.28
2022-10-22T02:17:40.887Z,65
2022-10-22T02:18:45.197Z,65.46
2022-10-22T02:19:49.586Z,65.22
2022-10-22T02:20:53.866Z,65.46
2022-10-22T02:21:58.115Z,65.46
2022-10-22T02:23:02.350Z,65.39
2022-10-22T02:24:06.631Z,65.4
2022-10-22T02:25:10.921Z,65.34
2022-10-22T02:26:15.194Z,65.45
2022-10-22T02:27:25.991Z,65.29
2022-10-22T02:28:31.455Z,65.23
2022-10-22T02:29:35.721Z,65.48
2022-10-22T02:30:39.977Z,65.39
2022-10-22T02:31:45.285Z,65.66
2022-10-22T02:32:49.556Z,65.43
2022-10-22T02:33:53.890Z,65.45
2022-10-22T02:34:58.165Z,65.25
2022-10-22T02:36:02.418Z,65.56
2022-10-22T02:37:06.699Z,65.42
2022-10-22T02:38:10.961Z,65.37
2022-10-22T02:40:19.624Z,65.23
2022-10-22T02:41:23.925Z,65.34
2022-10-22T02:42:28.177Z,65.17
2022-10-22T02:43:32.435Z,65.37
2022-10-22T02:44:36.712Z,65.57
2022-10-22T02:45:41.102Z,65.38
2022-10-22T02:46:45.365Z,65.43
2022-10-22T02:47:49.618Z,65.21
2022-10-22T02:48:54.918Z,65.13
2022-10-22T02:49:59.192Z,65.46
2022-10-22T02:51:03.466Z,65.55
2022-10-22T02:52:07.783Z,65.47
2022-10-22T02:53:12.027Z,65.45
2022-10-22T02:54:16.276Z,65.57
2022-10-22T02:55:20.557Z,65.3
2022-10-22T02:56:24.853Z,65.12
2022-10-22T02:57:29.122Z,65.69
2022-10-22T02:58:33.360Z,65.43
2022-10-22T02:59:37.617Z,65.1
2022-10-22T03:00:42.171Z,65.27
2022-10-22T03:01:46.485Z,65.42
2022-10-22T03:02:50.767Z,65.34
2022-10-22T03:03:55.021Z,65.58
2022-10-22T03:04:59.274Z,65.65
2022-10-22T03:06:03.568Z,65.57
2022-10-22T03:07:07.817Z,65.47
2022-10-22T03:08:12.085Z,65.71
2022-10-22T03:09:17.481Z,65.78
2022-10-22T03:10:24.253Z,65.86
2022-10-22T03:11:28.526Z,65.82
2022-10-22T03:12:32.783Z,65.84
2022-10-22T03:13:37.068Z,65.85
2022-10-22T03:14:41.316Z,65.55
2022-10-22T03:15:45.706Z,65.22
2022-10-22T03:16:49.935Z,65.54
2022-10-22T03:17:54.199Z,65.59
2022-10-22T03:18:58.498Z,65.6
2022-10-22T03:20:02.809Z,65.46
2022-10-22T03:21:07.056Z,65.33
2022-10-22T03:22:11.318Z,65.34
2022-10-22T03:23:15.621Z,65.59
2022-10-22T03:24:19.877Z,65.39
2022-10-22T03:25:24.148Z,65.45
2022-10-22T03:26:28.425Z,65.44
2022-10-22T03:27:32.712Z,65.69
2022-10-22T03:28:36.975Z,65.36
2022-10-22T03:29:41.231Z,65.49
2022-10-22T03:30:45.507Z,65.78
2022-10-22T03:31:49.772Z,65.36
2022-10-22T03:32:54.090Z,65.6
2022-10-22T03:33:58.342Z,65.79
2022-10-22T03:35:02.780Z,65.52
2022-10-22T03:36:07.041Z,65.71
2022-10-22T03:37:11.321Z,65.48
2022-10-22T03:38:15.580Z,65.68
2022-10-22T03:39:19.845Z,65.54
2022-10-22T03:40:24.098Z,65.79
2022-10-22T03:41:28.359Z,65.48
2022-10-22T03:42:32.672Z,65.52
2022-10-22T03:43:36.937Z,65.5
2022-10-22T03:44:41.324Z,65.91
2022-10-22T03:45:45.588Z,65.93
2022-10-22T03:46:49.888Z,65.54
2022-10-22T03:47:54.126Z,66.01
2022-10-22T03:48:58.410Z,66.07
2022-10-22T03:50:02.776Z,66.1
2022-10-22T03:51:07.067Z,65.75
2022-10-22T03:52:11.376Z,66.47
2022-10-22T03:53:15.645Z,65.83
2022-10-22T03:54:19.921Z,65.55
2022-10-22T03:55:24.243Z,65.65
2022-10-22T03:56:28.528Z,65.9
2022-10-22T03:57:32.808Z,65.93
2022-10-22T03:58:37.065Z,65.88
2022-10-22T03:59:41.324Z,66.06
2022-10-22T04:00:45.882Z,65.71
2022-10-22T04:01:50.178Z,66.2
2022-10-22T04:02:54.415Z,65.85
2022-10-22T04:03:58.676Z,66.1
2022-10-22T04:05:03.300Z,65.81
2022-10-22T04:06:07.620Z,65.84
2022-10-22T04:07:11.882Z,65.81
2022-10-22T04:08:16.206Z,66.14
2022-10-22T04:09:20.602Z,66
2022-10-22T04:10:24.867Z,65.92
2022-10-22T04:11:29.136Z,65.64
2022-10-22T04:12:33.406Z,65.52
2022-10-22T04:13:37.713Z,65.33
2022-10-22T04:14:42.003Z,65.34
2022-10-22T04:15:47.308Z,65.37
2022-10-22T04:16:52.065Z,65.25
2022-10-22T04:17:56.324Z,65.29
2022-10-22T04:19:00.646Z,65.09
2022-10-22T04:20:04.935Z,65.15
2022-10-22T04:21:09.192Z,64.96
2022-10-22T04:22:13.481Z,64.87
2022-10-22T04:23:17.730Z,64.86
2022-10-22T04:24:21.971Z,64.76
2022-10-22T04:25:26.249Z,64.72
2022-10-22T04:26:30.512Z,64.54
2022-10-22T04:27:34.775Z,64.44
2022-10-22T04:28:39.056Z,64.43
2022-10-22T04:29:43.315Z,64.36
2022-10-22T04:30:47.564Z,64.28
2022-10-22T04:31:51.804Z,64.22
2022-10-22T04:32:56.069Z,64.18
2022-10-22T04:34:00.342Z,64.26
2022-10-22T04:35:04.628Z,64.13
2022-10-22T04:36:08.948Z,64.26
2022-10-22T04:37:13.270Z,64.47
2022-10-22T04:38:17.529Z,64.32
2022-10-22T04:39:21.898Z,64.75
2022-10-22T04:40:26.149Z,64.66
2022-10-22T04:41:30.414Z,64.58
2022-10-22T04:42:34.714Z,64.5
2022-10-22T04:43:38.982Z,64.4
2022-10-22T04:44:43.238Z,64.32
2022-10-22T04:45:47.701Z,64.39
2022-10-22T04:46:52.007Z,64.43
2022-10-22T04:47:56.300Z,64.22
2022-10-22T04:49:00.617Z,64.22
2022-10-22T04:50:04.842Z,64.16
2022-10-22T04:51:09.106Z,64.08
2022-10-22T04:52:13.388Z,64.04
2022-10-22T04:53:17.909Z,64.07
2022-10-22T04:54:22.147Z,64.22
2022-10-22T04:55:26.572Z,63.93
2022-10-22T04:56:30.880Z,64.01
2022-10-22T04:57:35.142Z,64.04
2022-10-22T04:58:39.404Z,64.15
2022-10-22T04:59:43.650Z,64.16
2022-10-22T05:00:48.133Z,64.21
2022-10-22T05:01:52.408Z,64.28
2022-10-22T05:02:56.766Z,64.38
2022-10-22T05:04:01.078Z,64.42
2022-10-22T05:05:07.703Z,64.45
2022-10-22T05:07:17.339Z,64.41
2022-10-22T05:08:21.602Z,64.28
2022-10-22T05:09:25.972Z,64.12
2022-10-22T05:10:30.261Z,64.4
2022-10-22T05:11:34.520Z,64.36
2022-10-22T05:12:38.778Z,64.44
2022-10-22T05:13:43.068Z,64.4
2022-10-22T05:14:47.342Z,64.62
2022-10-22T05:15:51.617Z,64.61
2022-10-22T05:16:55.879Z,64.41
2022-10-22T05:18:00.148Z,64.53
2022-10-22T05:19:04.392Z,64.3
2022-10-22T05:20:08.633Z,64.47
2022-10-22T05:21:13.017Z,64.4
2022-10-22T05:22:17.276Z,64.58
2022-10-22T05:23:21.544Z,64.49
2022-10-22T05:24:26.089Z,64.56
2022-10-22T05:25:30.322Z,64.69
2022-10-22T05:26:34.579Z,64.54
2022-10-22T05:27:39.312Z,64.43
2022-10-22T05:28:43.782Z,64.39
2022-10-22T05:29:48.057Z,64.6
2022-10-22T05:30:52.303Z,64.62
2022-10-22T05:31:56.586Z,64.35
2022-10-22T05:33:03.379Z,64.51
2022-10-22T05:34:07.662Z,64.76
2022-10-22T05:35:11.938Z,64.47
2022-10-22T05:36:16.199Z,64.55
2022-10-22T05:37:20.449Z,64.55
2022-10-22T05:38:24.709Z,64.71
2022-10-22T05:39:28.989Z,64.78
2022-10-22T05:40:33.529Z,64.75
2022-10-22T05:41:38.569Z,64.97
2022-10-22T05:42:43.627Z,64.76
2022-10-22T05:43:47.915Z,65.04
2022-10-22T05:44:52.443Z,64.95
2022-10-22T05:45:56.734Z,64.93
2022-10-22T05:47:00.974Z,64.84
2022-10-22T05:48:05.255Z,64.79
2022-10-22T05:49:09.522Z,64.65
2022-10-22T05:50:13.815Z,64.64
2022-10-22T05:51:18.091Z,64.8
2022-10-22T05:52:22.338Z,64.71
2022-10-22T05:53:26.607Z,64.66
2022-10-22T05:54:30.847Z,64.54
2022-10-22T05:55:35.087Z,64.81
2022-10-22T05:56:39.345Z,64.43
2022-10-22T05:57:43.585Z,63.7
2022-10-22T05:58:47.935Z,62.92
2022-10-22T05:59:52.212Z,62.76
2022-10-22T06:00:56.500Z,62.53
2022-10-22T06:02:00.921Z,62.46
2022-10-22T06:03:05.213Z,62.37
2022-10-22T06:04:09.528Z,62.31
2022-10-22T06:05:13.784Z,62.11
2022-10-22T06:06:18.097Z,62.02
2022-10-22T06:07:22.367Z,61.86
2022-10-22T06:08:26.630Z,61.83
2022-10-22T06:09:31.128Z,61.73
2022-10-22T06:10:35.418Z,61.71
2022-10-22T06:11:39.674Z,61.79
2022-10-22T06:12:44.464Z,61.77
2022-10-22T06:13:48.734Z,61.92
2022-10-22T06:14:53.007Z,61.87
2022-10-22T06:15:57.262Z,61.91
2022-10-22T06:17:01.542Z,61.96
2022-10-22T06:18:05.801Z,62.02
2022-10-22T06:19:10.084Z,62.03
2022-10-22T06:20:14.347Z,62.11
2022-10-22T06:21:18.604Z,62.11
2022-10-22T06:22:22.872Z,62.12
2022-10-22T06:23:27.140Z,62.13
2022-10-22T06:24:31.460Z,62.22
2022-10-22T06:25:35.736Z,62.25
2022-10-22T06:26:40.010Z,62.22
2022-10-22T06:27:44.279Z,62.35
2022-10-22T06:28:48.784Z,62.29
2022-10-22T06:29:53.073Z,62.2
2022-10-22T06:30:57.338Z,62.23
2022-10-22T06:32:01.626Z,62.24
2022-10-22T06:33:05.893Z,62.31
2022-10-22T06:34:10.137Z,62.34
2022-10-22T06:35:14.417Z,62.42
2022-10-22T06:36:18.714Z,62.35
2022-10-22T06:37:22.962Z,62.3
2022-10-22T06:38:27.218Z,62.39
2022-10-22T06:39:31.479Z,62.41
2022-10-22T06:40:35.754Z,62.52
2022-10-22T06:41:40.018Z,62.35
2022-10-22T06:42:44.947Z,62.37
2022-10-22T06:43:49.264Z,62.48
2022-10-22T06:44:53.753Z,62.51
2022-10-22T06:45:58.036Z,62.61
2022-10-22T06:47:02.301Z,62.4
2022-10-22T06:48:06.597Z,62.55
2022-10-22T06:49:10.855Z,62.44
2022-10-22T06:50:15.111Z,62.49
2022-10-22T06:51:19.385Z,62.48
2022-10-22T06:52:23.685Z,62.44
2022-10-22T06:53:27.943Z,62.47
2022-10-22T06:54:32.190Z,62.47
2022-10-22T06:55:36.641Z,62.6
2022-10-22T06:56:40.911Z,62.26
2022-10-22T06:57:45.723Z,62.37
2022-10-22T06:58:49.984Z,62.36
2022-10-22T06:59:54.247Z,62.26
2022-10-22T07:00:58.735Z,62.38
2022-10-22T07:02:03.006Z,62.36
2022-10-22T07:03:07.502Z,62.48
2022-10-22T07:04:11.776Z,62.31
2022-10-22T07:05:16.036Z,62.16
2022-10-22T07:06:20.306Z,62.01
2022-10-22T07:07:24.850Z,61.91
2022-10-22T07:08:29.211Z,61.79
2022-10-22T07:09:33.473Z,61.74
2022-10-22T07:10:37.741Z,61.55
2022-10-22T07:11:42.095Z,61.49
2022-10-22T07:12:49.354Z,61.44
2022-10-22T07:13:53.611Z,61.41
2022-10-22T07:14:57.883Z,61.36
2022-10-22T07:16:02.162Z,61.3
2022-10-22T07:17:06.473Z,61.31
2022-10-22T07:18:10.842Z,61.32
2022-10-22T07:19:15.113Z,61.3
2022-10-22T07:20:19.360Z,61.26
2022-10-22T07:21:23.621Z,61.27
2022-10-22T07:22:27.934Z,61.36
2022-10-22T07:23:32.205Z,61.4
2022-10-22T07:24:36.459Z,61.39
2022-10-22T07:25:40.745Z,61.39
2022-10-22T07:26:45.012Z,61.36
2022-10-22T07:27:49.592Z,61.35
2022-10-22T07:28:53.855Z,61.4
2022-10-22T07:29:58.156Z,61.32
2022-10-22T07:31:02.461Z,61.47
2022-10-22T07:32:06.698Z,61.42
2022-10-22T07:33:11.107Z,61.47
2022-10-22T07:34:15.521Z,61.33
2022-10-22T07:35:19.825Z,61.4
2022-10-22T07:36:26.364Z,61.4
2022-10-22T07:37:30.638Z,61.52
2022-10-22T07:38:34.935Z,61.33
2022-10-22T07:39:39.179Z,61.47
2022-10-22T07:40:43.457Z,61.51
2022-10-22T07:41:47.729Z,61.49
2022-10-22T07:42:52.010Z,61.48
2022-10-22T07:43:56.320Z,61.56
2022-10-22T07:45:00.609Z,61.55
2022-10-22T07:46:05.117Z,61.57
2022-10-22T07:47:09.407Z,61.65
2022-10-22T07:48:13.701Z,61.56
2022-10-22T07:49:17.973Z,61.6
2022-10-22T07:50:22.292Z,61.59
2022-10-22T07:51:26.593Z,61.68
2022-10-22T07:52:30.852Z,61.59
2022-10-22T07:53:35.122Z,61.92
2022-10-22T07:54:39.431Z,61.47
2022-10-22T07:55:43.687Z,61.23
2022-10-22T07:56:47.929Z,60.91
2022-10-22T07:57:52.229Z,60.54
2022-10-22T07:58:56.822Z,60.42
2022-10-22T08:00:01.192Z,60.48
2022-10-22T08:01:05.893Z,60.48
2022-10-22T08:02:10.247Z,60.54
2022-10-22T08:03:14.504Z,60.56
2022-10-22T08:04:18.802Z,60.27
2022-10-22T08:05:23.168Z,60.37
2022-10-22T08:06:27.455Z,60.39
2022-10-22T08:07:31.778Z,60.44
2022-10-22T08:08:36.283Z,60.5
2022-10-22T08:09:40.527Z,60.5
2022-10-22T08:10:44.775Z,60.54
2022-10-22T08:11:49.050Z,60.6
2022-10-22T08:12:53.305Z,60.59
2022-10-22T08:13:57.555Z,60.65
2022-10-22T08:15:01.872Z,60.73
2022-10-22T08:16:06.187Z,60.64
2022-10-22T08:17:10.682Z,60.71
2022-10-22T08:18:14.943Z,60.7
2022-10-22T08:19:19.207Z,60.74
2022-10-22T08:20:23.473Z,60.82
2022-10-22T08:21:27.762Z,60.92
2022-10-22T08:22:32.028Z,60.86
2022-10-22T08:23:36.298Z,60.96
2022-10-22T08:24:40.708Z,60.89
2022-10-22T08:25:44.973Z,60.88
2022-10-22T08:26:49.248Z,60.84
2022-10-22T08:27:53.605Z,60.77
2022-10-22T08:28:57.980Z,60.62
2022-10-22T08:30:02.412Z,60.57
2022-10-22T08:31:06.687Z,60.59
2022-10-22T08:32:10.977Z,60.47
2022-10-22T08:33:15.246Z,60.38
2022-10-22T08:34:19.505Z,60.38
2022-10-22T08:35:23.787Z,60.33
2022-10-22T08:36:28.072Z,60.45
2022-10-22T08:37:32.358Z,60.38
2022-10-22T08:38:36.606Z,60.47
2022-10-22T08:39:40.994Z,60.44
2022-10-22T08:40:45.469Z,60.43
2022-10-22T08:41:49.770Z,60.45
2022-10-22T08:42:54.035Z,60.44
2022-10-22T08:43:58.324Z,60.41
2022-10-22T08:45:02.605Z,60.49
2022-10-22T08:46:06.868Z,60.51
2022-10-22T08:47:11.175Z,60.56
2022-10-22T08:48:15.455Z,60.59
2022-10-22T08:49:19.733Z,60.57
2022-10-22T08:50:24.008Z,60.6
2022-10-22T08:51:28.270Z,60.61
2022-10-22T08:52:32.646Z,60.68
2022-10-22T08:53:36.926Z,60.77
2022-10-22T08:54:41.223Z,60.78
2022-10-22T08:55:45.490Z,60.78
2022-10-22T08:56:49.917Z,60.79
2022-10-22T08:57:54.733Z,60.82
2022-10-22T08:58:58.999Z,60.87
2022-10-22T09:00:03.244Z,60.88
2022-10-22T09:01:07.630Z,60.87
2022-10-22T09:02:11.945Z,60.89
2022-10-22T09:03:16.202Z,60.86
2022-10-22T09:04:20.495Z,60.94
2022-10-22T09:05:24.753Z,60.9
2022-10-22T09:06:28.999Z,60.93
2022-10-22T09:07:33.270Z,61
2022-10-22T09:08:37.765Z,61
2022-10-22T09:09:42.079Z,61.03
2022-10-22T09:10:47.326Z,61.07
2022-10-22T09:11:51.604Z,61.13
2022-10-22T09:12:56.176Z,61.19
2022-10-22T09:14:00.475Z,61.04
2022-10-22T09:15:04.745Z,61.15
2022-10-22T09:16:09.041Z,61.13
2022-10-22T09:17:13.321Z,61.17
2022-10-22T09:18:17.621Z,61.24
2022-10-22T09:19:21.907Z,61.09
2022-10-22T09:20:26.323Z,61.13
2022-10-22T09:21:30.754Z,61.14
2022-10-22T09:22:36.020Z,61.21
2022-10-22T09:23:40.313Z,61.16
2022-10-22T09:24:44.619Z,61.21
2022-10-22T09:25:49.369Z,61.1
2022-10-22T09:26:53.766Z,61.26
2022-10-22T09:27:58.023Z,61.1
2022-10-22T09:29:02.291Z,61.23
2022-10-22T09:30:06.564Z,61.2
2022-10-22T09:31:10.855Z,61.32
2022-10-22T09:32:15.104Z,61.41
2022-10-22T09:33:25.835Z,61.33
2022-10-22T09:34:30.119Z,61.29
2022-10-22T09:35:34.371Z,61.29
2022-10-22T09:36:38.719Z,61.34
2022-10-22T09:37:43.009Z,61.37
2022-10-22T09:38:47.274Z,61.37
2022-10-22T09:39:51.531Z,61.33
2022-10-22T09:40:55.851Z,61.43
2022-10-22T09:42:00.120Z,61.51
2022-10-22T09:43:04.660Z,61.47
2022-10-22T09:44:08.939Z,61.54
2022-10-22T09:45:13.198Z,61.52
2022-10-22T09:46:17.473Z,61.58
2022-10-22T09:47:29.089Z,61.53
2022-10-22T09:48:41.632Z,61.63
2022-10-22T09:49:45.969Z,61.52
2022-10-22T09:50:50.273Z,61.56
2022-10-22T09:51:54.638Z,61.41
2022-10-22T09:52:58.912Z,61.77
2022-10-22T09:54:03.151Z,61.86
2022-10-22T09:55:07.389Z,61.59
2022-10-22T09:56:11.709Z,61.72
2022-10-22T09:57:16.001Z,61.62
2022-10-22T09:58:20.276Z,61.6
2022-10-22T09:59:24.582Z,61.68
2022-10-22T10:00:28.859Z,61.74
2022-10-22T10:01:33.131Z,61.57
2022-10-22T10:02:41.165Z,61.65
2022-10-22T10:03:45.420Z,61.62
2022-10-22T10:04:49.782Z,61.78
2022-10-22T10:05:54.047Z,61.58
2022-10-22T10:07:00.727Z,61.65
2022-10-22T10:08:04.957Z,61.63
2022-10-22T10:09:09.515Z,61.7
2022-10-22T10:10:13.826Z,61.62
2022-10-22T10:11:18.074Z,61.64
2022-10-22T10:12:22.376Z,61.58
2022-10-22T10:13:26.669Z,61.45
2022-10-22T10:14:30.915Z,61.57
2022-10-22T10:15:35.161Z,61.33
2022-10-22T10:16:39.433Z,60.76
2022-10-22T10:17:44.886Z,60.51
2022-10-22T10:18:49.331Z,60.46
2022-10-22T10:19:53.575Z,60.42
2022-10-22T10:20:57.844Z,60.39
2022-10-22T10:22:02.129Z,60.46
2022-10-22T10:23:09.392Z,60.49
2022-10-22T10:24:13.654Z,60.5
2022-10-22T10:25:17.946Z,60.52
2022-10-22T10:26:22.231Z,60.49
2022-10-22T10:27:26.490Z,60.62
2022-10-22T10:28:33.267Z,60.59
2022-10-22T10:29:38.545Z,60.61
2022-10-22T10:30:42.825Z,60.76
2022-10-22T10:31:47.108Z,60.78
2022-10-22T10:32:51.490Z,60.91
2022-10-22T10:33:55.793Z,60.98
2022-10-22T10:35:00.079Z,61.02
2022-10-22T10:36:04.338Z,61.01
2022-10-22T10:37:08.599Z,61.01
2022-10-22T10:38:13.264Z,61.09
2022-10-22T10:39:17.538Z,61.11
2022-10-22T10:40:21.811Z,61.03
2022-10-22T10:41:26.116Z,61.13
2022-10-22T10:42:30.395Z,61.19
2022-10-22T10:43:35.677Z,61.33
2022-10-22T10:44:39.936Z,61.27
2022-10-22T10:45:46.437Z,61.3
2022-10-22T10:46:50.664Z,61.33
2022-10-22T10:47:54.919Z,61.4
2022-10-22T10:48:59.239Z,61.43
2022-10-22T10:50:03.484Z,61.58
2022-10-22T10:51:07.763Z,61.51
2022-10-22T10:52:12.057Z,61.44
2022-10-22T10:53:16.314Z,61.55
2022-10-22T10:54:20.625Z,61.61
2022-10-22T10:55:24.871Z,61.72
2022-10-22T10:56:29.103Z,61.72
2022-10-22T10:57:33.368Z,61.65
2022-10-22T10:58:37.651Z,61.65
2022-10-22T10:59:41.925Z,61.64
2022-10-22T11:00:46.213Z,61.53
2022-10-22T11:01:50.705Z,61.62
2022-10-22T11:04:00.272Z,61.69
2022-10-22T11:05:04.534Z,61.7
2022-10-22T11:06:08.817Z,61.79
2022-10-22T11:07:35.588Z,61.78
2022-10-22T11:08:40.154Z,61.8
2022-10-22T11:09:44.470Z,61.8
2022-10-22T11:10:48.985Z,61.77
2022-10-22T11:11:53.279Z,61.93
2022-10-22T11:12:59.514Z,61.84
2022-10-22T11:14:04.071Z,61.84
2022-10-22T11:15:08.440Z,61.91
2022-10-22T11:16:12.686Z,61.98
2022-10-22T11:17:16.963Z,61.89
2022-10-22T11:18:21.275Z,61.93
2022-10-22T11:19:57.910Z,61.92
2022-10-22T11:21:04.101Z,62.05
2022-10-22T11:22:08.363Z,62.07
2022-10-22T11:23:23.226Z,62.04
2022-10-22T11:24:27.640Z,62.09
2022-10-22T11:25:31.912Z,62.08
2022-10-22T11:26:36.195Z,62.16
2022-10-22T11:27:41.640Z,62.05
2022-10-22T11:28:46.064Z,61.98
2022-10-22T11:29:50.320Z,62.18
2022-10-22T11:30:54.577Z,62.18
2022-10-22T11:31:58.850Z,62.13
2022-10-22T11:33:03.133Z,62.05
2022-10-22T11:34:35.398Z,61.99
2022-10-22T11:35:39.638Z,62.13
2022-10-22T11:36:43.917Z,62.05
2022-10-22T11:37:48.183Z,62.05
2022-10-22T11:38:52.493Z,62
2022-10-22T11:39:56.752Z,62.1
2022-10-22T11:41:01.100Z,62.04
2022-10-22T11:42:05.363Z,62.61
2022-10-22T11:43:09.689Z,62.39
2022-10-22T11:44:13.964Z,62.34
2022-10-22T11:45:18.218Z,62.31
2022-10-22T11:46:22.521Z,62.39
2022-10-22T11:47:26.783Z,62.49
2022-10-22T11:48:31.034Z,62.46
2022-10-22T11:49:35.331Z,62.53
2022-10-22T11:50:39.617Z,62.46
2022-10-22T11:51:43.900Z,62.48
2022-10-22T11:52:48.149Z,62.55
2022-10-22T11:53:52.431Z,62.41
2022-10-22T11:54:56.799Z,62.48
2022-10-22T11:56:01.089Z,62.4
2022-10-22T11:57:05.384Z,62.48
2022-10-22T11:58:09.672Z,62.38
2022-10-22T11:59:13.948Z,62.35
2022-10-22T12:00:18.217Z,62.33
2022-10-22T12:01:22.689Z,62.23
2022-10-22T12:02:26.973Z,62.24
2022-10-22T12:03:31.221Z,62.29
2022-10-22T12:04:35.734Z,62.48
2022-10-22T12:05:40.023Z,62.18
2022-10-22T12:06:44.313Z,62.21
2022-10-22T12:07:48.555Z,62.11
2022-10-22T12:08:53.205Z,62.05
2022-10-22T12:09:57.824Z,62.01
2022-10-22T12:11:03.322Z,62.08
2022-10-22T12:12:08.358Z,61.96
2022-10-22T12:13:14.006Z,61.96
2022-10-22T12:14:19.582Z,62
2022-10-22T12:15:28.985Z,62.18
2022-10-22T12:16:59.458Z,61.86
2022-10-22T12:18:04.576Z,61.63
2022-10-22T12:19:12.440Z,61.42
2022-10-22T12:20:19.189Z,61.38
2022-10-22T12:21:24.052Z,61.46
2022-10-22T12:22:38.223Z,61.43
2022-10-22T12:23:46.062Z,61.47
2022-10-22T12:24:50.477Z,61.45
2022-10-22T12:25:55.007Z,61.49
2022-10-22T12:26:59.288Z,61.4
2022-10-22T12:28:03.540Z,61.3
2022-10-22T12:29:07.829Z,61.36
2022-10-22T12:30:12.166Z,61.37
2022-10-22T12:31:16.421Z,61.23
2022-10-22T12:32:20.677Z,61.27
2022-10-22T12:33:24.926Z,61.36
2022-10-22T12:34:29.223Z,61.33
2022-10-22T12:35:33.607Z,61.36
2022-10-22T12:36:37.895Z,61.25
2022-10-22T12:37:43.526Z,61.38
2022-10-22T12:38:48.070Z,61.29
2022-10-22T12:39:52.334Z,61.39
2022-10-22T12:40:56.621Z,61.53
2022-10-22T12:42:00.897Z,61.45
2022-10-22T12:43:06.485Z,61.43
2022-10-22T12:44:10.777Z,61.5
2022-10-22T12:45:15.032Z,61.53
2022-10-22T12:46:19.294Z,61.52
2022-10-22T12:47:23.543Z,61.48
2022-10-22T12:48:27.789Z,61.42
2022-10-22T12:49:32.075Z,61.41
2022-10-22T12:50:36.377Z,61.48
2022-10-22T12:51:40.654Z,61.47
2022-10-22T12:52:45.300Z,61.54
2022-10-22T12:53:49.572Z,61.4
2022-10-22T12:54:54.913Z,61.41
2022-10-22T12:55:59.236Z,61.35
2022-10-22T12:57:03.809Z,61.35
2022-10-22T12:58:08.072Z,61.38
2022-10-22T12:59:12.348Z,61.44
2022-10-22T13:00:16.698Z,61.36
2022-10-22T13:01:21.159Z,61.28
2022-10-22T13:02:25.698Z,61.4
2022-10-22T13:03:30.205Z,61.46
2022-10-22T13:04:34.444Z,61.35
2022-10-22T13:05:38.770Z,61.36
2022-10-22T13:06:43.058Z,61.29
2022-10-22T13:07:47.314Z,61.26
2022-10-22T13:08:51.765Z,61.26
2022-10-22T13:09:56.035Z,61.35
2022-10-22T13:11:00.286Z,61.29
2022-10-22T13:12:04.682Z,61.27
2022-10-22T13:13:08.976Z,61.19
2022-10-22T13:14:13.224Z,61.17
2022-10-22T13:15:17.468Z,61.06
2022-10-22T13:16:21.867Z,60.92
2022-10-22T13:17:26.187Z,60.89
2022-10-22T13:18:30.490Z,60.9
2022-10-22T13:19:34.772Z,60.75
2022-10-22T13:20:39.028Z,60.69
2022-10-22T13:21:43.307Z,60.72
2022-10-22T13:22:47.550Z,60.7
2022-10-22T13:23:51.815Z,60.72
2022-10-22T13:26:00.495Z,60.71
2022-10-22T13:27:04.743Z,60.68
2022-10-22T13:28:08.988Z,60.7
2022-10-22T13:29:13.252Z,60.69
2022-10-22T13:30:17.553Z,60.7
2022-10-22T13:31:21.801Z,60.71
2022-10-22T13:32:26.056Z,60.65
2022-10-22T13:33:30.358Z,60.72
2022-10-22T13:34:34.628Z,60.73
2022-10-22T13:35:38.892Z,60.76
2022-10-22T13:36:43.172Z,60.82
2022-10-22T13:37:47.445Z,60.8
2022-10-22T13:38:51.820Z,60.81
2022-10-22T13:39:56.138Z,60.94
2022-10-22T13:41:00.432Z,60.93
2022-10-22T13:42:04.683Z,60.92
2022-10-22T13:43:08.945Z,60.97
2022-10-22T13:44:13.219Z,61.07
2022-10-22T13:45:20.074Z,61.08
2022-10-22T13:46:24.419Z,61.08
2022-10-22T13:47:28.715Z,61.11
2022-10-22T13:48:33.002Z,61
2022-10-22T13:49:37.335Z,61.26
2022-10-22T13:50:41.655Z,61.33
2022-10-22T13:51:45.923Z,61.2
2022-10-22T13:52:50.176Z,61.25
2022-10-22T13:53:54.421Z,61.31
2022-10-22T13:54:58.699Z,61.38
2022-10-22T13:56:02.961Z,61.35
2022-10-22T13:57:07.249Z,61.38
2022-10-22T13:58:12.700Z,61.42
2022-10-22T13:59:24.666Z,61.44
2022-10-22T14:00:29.121Z,61.5